Time;durP1;ratioP1;P1;durP2;ratioP2;P2;SDS_P1;SDS_P2;PMS_P1;PMS_P2;Temp;Humidity;BMP_temperature;BMP_pressure;BME280_temperature;BME280_humidity;BME280_pressure;Samples;Min_cycle;Max_cycle;Signal;HPM_P1;HPM_P2
2022/01/30 00:01:44;;;;;;;14.03;8.63;;;5.40;60.70;;;;;;5018132;28;20110;-81
2022/01/30 00:04:10;;;;;;;16.13;8.87;;;5.40;60.70;;;;;;5024492;28;20476;-80
2022/01/30 00:06:37;;;;;;;14.83;8.53;;;5.50;60.50;;;;;;5013428;28;20370;-80
2022/01/30 00:09:05;;;;;;;13.10;8.37;;;5.50;60.40;;;;;;5030680;28;20026;-81
2022/01/30 00:11:34;;;;;;;15.53;9.40;;;5.40;60.60;;;;;;5029790;28;20113;-80
2022/01/30 00:14:02;;;;;;;14.50;9.20;;;5.50;60.60;;;;;;5030389;28;20026;-80
2022/01/30 00:16:32;;;;;;;18.70;9.20;;;5.50;60.40;;;;;;5036764;28;20029;-80
2022/01/30 00:24:05;;;;;;;14.63;7.80;;;5.50;60.70;;;;;;5030612;28;20864;-80
2022/01/30 00:26:34;;;;;;;18.30;9.77;;;5.50;60.60;;;;;;5019555;28;20448;-81
2022/01/30 00:29:00;;;;;;;14.97;9.07;;;5.50;60.60;;;;;;5029684;28;20021;-81
2022/01/30 00:31:26;;;;;;;14.20;8.20;;;5.50;60.60;;;;;;5032266;28;20044;-80
2022/01/30 00:33:53;;;;;;;20.43;11.20;;;5.50;60.60;;;;;;5030903;28;20055;-81
2022/01/30 00:36:19;;;;;;;19.20;9.53;;;5.50;60.60;;;;;;5027976;28;20072;-81
2022/01/30 00:38:45;;;;;;;17.13;8.80;;;5.50;60.60;;;;;;5025715;28;20030;-81
2022/01/30 00:41:11;;;;;;;14.30;8.57;;;5.50;60.50;;;;;;5024747;28;20120;-81
2022/01/30 00:43:37;;;;;;;13.97;8.90;;;5.50;60.60;;;;;;5024753;28;20108;-81
2022/01/30 00:46:03;;;;;;;17.17;9.50;;;5.50;60.40;;;;;;5027078;28;20108;-81
2022/01/30 00:48:29;;;;;;;15.10;7.47;;;5.50;60.70;;;;;;5031619;28;20813;-81
2022/01/30 00:50:55;;;;;;;14.80;9.20;;;5.40;60.60;;;;;;5029129;28;20227;-81
2022/01/30 00:53:21;;;;;;;12.43;8.70;;;5.50;60.90;;;;;;5025158;28;20679;-81
2022/01/30 00:55:47;;;;;;;17.67;9.93;;;5.50;60.80;;;;;;5030921;28;20534;-81
2022/01/30 00:58:13;;;;;;;13.63;8.43;;;5.50;60.80;;;;;;5031051;28;20535;-81
2022/01/30 01:00:39;;;;;;;11.53;8.23;;;5.50;61.00;;;;;;5029024;28;20417;-81
2022/01/30 01:03:06;;;;;;;16.20;8.83;;;5.50;60.90;;;;;;5030069;28;20121;-81
2022/01/30 01:05:34;;;;;;;10.90;7.70;;;5.50;60.80;;;;;;5029671;28;20383;-81
2022/01/30 01:08:07;;;;;;;14.87;8.07;;;5.50;60.90;;;;;;5024522;28;20045;-81
2022/01/30 01:10:43;;;;;;;15.47;8.63;;;5.50;60.90;;;;;;5030787;28;20016;-81
2022/01/30 01:24:04;;;;;;;13.20;8.50;;;5.50;60.90;;;;;;5029895;28;20025;-81
2022/01/30 01:26:30;;;;;;;14.98;8.15;;;5.60;60.90;;;;;;5017278;28;20523;-81
2022/01/30 01:28:55;;;;;;;13.60;8.30;;;5.50;60.80;;;;;;5029449;28;20037;-81
2022/01/30 01:31:22;;;;;;;13.33;7.73;;;5.50;60.70;;;;;;5024075;28;20544;-80
2022/01/30 01:36:14;;;;;;;10.67;7.13;;;5.60;60.90;;;;;;5031816;28;20041;-81
2022/01/30 01:38:40;;;;;;;12.47;6.97;;;5.60;60.70;;;;;;5023588;28;20021;-81
2022/01/30 01:41:05;;;;;;;13.50;5.50;;;5.60;61.00;;;;;;5027492;28;20117;-81
2022/01/30 01:43:32;;;;;;;8.03;5.57;;;5.60;61.20;;;;;;5031828;28;20057;-81
2022/01/30 01:45:59;;;;;;;9.27;5.20;;;5.70;61.20;;;;;;5029959;28;20098;-81
2022/01/30 01:48:25;;;;;;;8.23;4.77;;;5.80;61.00;;;;;;5021229;28;20535;-81
2022/01/30 01:51:05;;;;;;;8.30;5.10;;;5.90;60.70;;;;;;5029685;28;20063;-81
2022/01/30 01:53:32;;;;;;;11.13;7.60;;;5.90;60.60;;;;;;5028723;28;20545;-81
2022/01/30 01:55:58;;;;;;;10.83;6.50;;;5.80;60.40;;;;;;5030113;28;20029;-81
2022/01/30 01:58:25;;;;;;;10.63;6.43;;;5.70;60.60;;;;;;5033654;28;20037;-80
2022/01/30 02:00:51;;;;;;;13.30;6.70;;;5.80;60.80;;;;;;5030885;28;20492;-81
2022/01/30 02:03:18;;;;;;;11.13;7.17;;;5.80;60.70;;;;;;5016808;28;20109;-81
2022/01/30 02:05:50;;;;;;;13.93;7.40;;;5.80;60.60;;;;;;5029605;28;20030;-81
2022/01/30 02:26:49;;;;;;;11.13;6.57;;;5.70;61.40;;;;;;5045216;28;20064;-81
2022/01/30 02:29:15;;;;;;;13.47;6.80;;;5.70;61.50;;;;;;5033552;28;20368;-81
2022/01/30 02:31:42;;;;;;;13.77;6.70;;;5.70;61.80;;;;;;5034494;28;20026;-81
2022/01/30 02:34:08;;;;;;;9.20;5.93;;;5.70;61.90;;;;;;5028599;28;20567;-80
2022/01/30 02:36:52;;;;;;;10.13;6.10;;;5.80;62.10;;;;;;5034600;28;20033;-81
2022/01/30 02:39:19;;;;;;;13.33;7.20;;;5.80;62.10;;;;;;5029355;28;20049;-81
2022/01/30 02:41:46;;;;;;;10.80;6.63;;;5.70;62.00;;;;;;5025812;28;20532;-81
2022/01/30 02:44:18;;;;;;;10.73;6.70;;;5.80;62.20;;;;;;5032414;28;20396;-81
2022/01/30 02:46:50;;;;;;;9.75;6.53;;;5.80;62.40;;;;;;5033704;28;20059;-81
2022/01/30 02:51:55;;;;;;;11.17;5.83;;;5.90;62.10;;;;;;5029808;28;20028;-81
2022/01/30 02:54:22;;;;;;;10.77;5.87;;;6.00;62.60;;;;;;5032762;28;20098;-81
2022/01/30 02:56:48;;;;;;;8.40;5.80;;;6.00;62.30;;;;;;5029112;28;20077;-81
2022/01/30 02:59:16;;;;;;;9.67;5.97;;;6.00;62.60;;;;;;5034145;28;20029;-80
2022/01/30 03:01:42;;;;;;;11.43;6.97;;;5.90;62.60;;;;;;5033242;28;20051;-81
2022/01/30 03:04:08;;;;;;;9.40;6.20;;;5.90;62.90;;;;;;5031612;28;20116;-81
2022/01/30 03:06:35;;;;;;;9.17;6.40;;;5.90;63.10;;;;;;5033114;28;20021;-81
2022/01/30 03:09:06;;;;;;;10.30;5.70;;;6.00;63.30;;;;;;5030946;28;20017;-81
2022/01/30 03:11:32;;;;;;;9.23;6.07;;;5.90;63.50;;;;;;5025225;28;20101;-81
2022/01/30 03:13:58;;;;;;;8.90;5.83;;;5.90;63.60;;;;;;5032761;28;20100;-81
2022/01/30 03:16:23;;;;;;;9.07;5.40;;;6.00;63.90;;;;;;5033219;28;20415;-81
2022/01/30 03:18:50;;;;;;;6.90;4.93;;;6.00;63.70;;;;;;5033855;28;20029;-81
2022/01/30 03:21:16;;;;;;;9.33;5.60;;;6.10;63.90;;;;;;5031934;28;20542;-81
2022/01/30 03:23:42;;;;;;;7.77;5.03;;;6.10;63.60;;;;;;5032339;28;20115;-81
2022/01/30 03:26:11;;;;;;;10.13;5.40;;;6.10;63.60;;;;;;5031904;28;20484;-81
2022/01/30 03:28:39;;;;;;;7.83;5.70;;;6.20;64.10;;;;;;5031522;28;20442;-81
2022/01/30 03:31:07;;;;;;;9.13;5.43;;;6.30;63.60;;;;;;5028180;28;20022;-81
2022/01/30 03:33:33;;;;;;;7.77;5.33;;;6.20;63.70;;;;;;5028005;28;20040;-81
2022/01/30 03:35:59;;;;;;;11.77;5.40;;;6.10;63.90;;;;;;5033875;28;20029;-81
2022/01/30 03:38:26;;;;;;;8.37;5.80;;;6.10;64.00;;;;;;5031954;28;20033;-81
2022/01/30 03:40:52;;;;;;;9.53;5.57;;;6.00;64.80;;;;;;5029303;28;20612;-81
2022/01/30 03:43:18;;;;;;;10.07;5.40;;;6.00;64.50;;;;;;5029903;28;20538;-81
2022/01/30 03:45:45;;;;;;;6.83;4.40;;;6.00;64.70;;;;;;5031193;28;20025;-81
2022/01/30 03:48:12;;;;;;;9.00;4.30;;;6.10;65.00;;;;;;5030582;28;20052;-81
2022/01/30 03:50:38;;;;;;;16.97;5.60;;;6.20;64.90;;;;;;5031918;28;20506;-81
2022/01/30 03:53:04;;;;;;;6.70;4.43;;;6.10;64.80;;;;;;5032740;28;20049;-80
2022/01/30 03:55:30;;;;;;;8.23;4.23;;;6.10;65.30;;;;;;5030999;28;20052;-81
2022/01/30 03:57:55;;;;;;;5.90;3.10;;;6.00;65.30;;;;;;5031004;28;20025;-81
2022/01/30 04:00:23;;;;;;;5.60;3.60;;;6.00;65.50;;;;;;5024053;28;20032;-80
2022/01/30 04:02:49;;;;;;;5.00;3.40;;;6.10;65.90;;;;;;5024965;28;20018;-80
2022/01/30 04:05:15;;;;;;;10.47;3.53;;;6.20;66.00;;;;;;5032120;28;20021;-81
2022/01/30 04:07:41;;;;;;;5.93;3.17;;;6.20;65.70;;;;;;5031487;28;20164;-81
2022/01/30 04:10:08;;;;;;;7.57;4.07;;;6.20;65.90;;;;;;5030052;28;20423;-80
2022/01/30 04:12:34;;;;;;;8.73;5.33;;;6.20;65.90;;;;;;5031025;28;20100;-81
2022/01/30 04:15:00;;;;;;;8.07;4.77;;;6.20;65.80;;;;;;5026291;28;20504;-81
2022/01/30 04:17:26;;;;;;;6.87;4.60;;;6.20;65.90;;;;;;5028708;28;20056;-81
2022/01/30 04:19:52;;;;;;;7.73;4.90;;;6.20;66.00;;;;;;5025528;28;20059;-81
2022/01/30 04:22:18;;;;;;;9.57;5.53;;;6.10;65.90;;;;;;5031499;28;20496;-81
2022/01/30 04:24:44;;;;;;;21.57;11.70;;;6.20;65.90;;;;;;5018518;28;20033;-81
2022/01/30 04:27:09;;;;;;;17.40;9.70;;;6.10;65.70;;;;;;5032231;28;20033;-81
2022/01/30 04:29:36;;;;;;;16.30;9.57;;;6.00;66.00;;;;;;5029206;28;20075;-80
2022/01/30 04:32:03;;;;;;;11.23;6.13;;;6.10;66.20;;;;;;5032993;28;20435;-81
2022/01/30 04:34:29;;;;;;;8.70;4.70;;;6.00;66.50;;;;;;5030710;28;20033;-81
2022/01/30 04:53:15;;;;;;;10.90;6.43;;;6.10;67.00;;;;;;5029277;28;20041;-81
2022/01/30 04:56:50;;;;;;;13.68;8.05;;;6.10;66.50;;;;;;5016425;28;20029;-81
2022/01/30 04:58:34;;;;;;;9.03;6.50;;;6.00;66.60;;;;;;5021048;28;20065;-81
2022/01/30 05:01:16;;;;;;;10.93;5.87;;;6.00;66.90;;;;;;5025305;28;20073;-81
2022/01/30 05:03:59;;;;;;;8.03;5.27;;;6.00;67.20;;;;;;5024209;28;20136;-81
2022/01/30 05:06:52;;;;;;;7.20;3.63;;;6.00;67.30;;;;;;5021277;28;20025;-81
2022/01/30 05:09:17;;;;;;;4.83;3.40;;;6.10;67.40;;;;;;5026592;28;20028;-81
2022/01/30 05:11:43;;;;;;;4.70;2.90;;;6.10;67.30;;;;;;5028252;28;20029;-81
2022/01/30 05:14:09;;;;;;;12.40;6.37;;;6.20;67.50;;;;;;5030168;28;20026;-82
2022/01/30 05:16:35;;;;;;;24.87;11.40;;;6.20;67.30;;;;;;5027088;28;20643;-82
2022/01/30 05:19:02;;;;;;;14.20;5.97;;;6.20;67.40;;;;;;5023970;28;20064;-82
2022/01/30 05:21:27;;;;;;;12.40;8.63;;;6.20;67.30;;;;;;5027344;28;20392;-82
2022/01/30 05:23:53;;;;;;;12.23;7.80;;;6.10;67.10;;;;;;5021697;28;20022;-82
2022/01/30 05:26:24;;;;;;;12.77;8.10;;;6.00;67.00;;;;;;5029039;28;20490;-82
2022/01/30 05:28:50;;;;;;;10.20;6.10;;;6.00;67.10;;;;;;5029268;28;20496;-82
2022/01/30 05:31:16;;;;;;;5.23;2.43;;;6.00;67.30;;;;;;5020918;28;20025;-82
2022/01/30 05:33:42;;;;;;;3.53;1.20;;;6.10;67.60;;;;;;5021469;28;20057;-82
2022/01/30 05:36:08;;;;;;;1.90;1.20;;;6.70;68.00;;;;;;5030018;28;20033;-82
2022/01/30 05:38:34;;;;;;;3.00;1.87;;;6.90;66.50;;;;;;5028675;28;20037;-82
2022/01/30 05:41:01;;;;;;;9.00;6.30;;;6.90;66.60;;;;;;5016959;28;20527;-83
2022/01/30 05:43:30;;;;;;;6.30;4.23;;;6.60;66.30;;;;;;5033277;28;20052;-82
2022/01/30 05:46:08;;;;;;;3.07;2.20;;;6.40;67.00;;;;;;5034736;28;20021;-82
2022/01/30 05:48:34;;;;;;;8.33;4.57;;;6.40;67.80;;;;;;5033693;28;20492;-82
2022/01/30 05:51:00;;;;;;;14.60;8.43;;;6.80;67.10;;;;;;5033196;28;20026;-82
2022/01/30 05:53:26;;;;;;;15.07;7.27;;;6.60;66.40;;;;;;5034049;28;20709;-82
2022/01/30 05:55:52;;;;;;;13.10;7.90;;;6.50;66.80;;;;;;5034237;28;20084;-82
2022/01/30 05:58:18;;;;;;;13.33;6.97;;;6.50;66.90;;;;;;5034879;28;20029;-82
2022/01/30 06:00:43;;;;;;;12.67;6.53;;;6.40;67.00;;;;;;5032037;28;20040;-83
2022/01/30 06:03:09;;;;;;;9.03;5.97;;;6.40;67.00;;;;;;5028286;28;20580;-82
2022/01/30 06:05:35;;;;;;;8.77;5.33;;;6.30;67.20;;;;;;5026643;28;20111;-82
2022/01/30 06:08:10;;;;;;;8.43;5.53;;;6.40;67.70;;;;;;5031818;28;20021;-83
2022/01/30 06:10:36;;;;;;;12.20;7.03;;;6.40;67.40;;;;;;5017177;28;20049;-82
2022/01/30 06:13:02;;;;;;;8.50;5.20;;;6.40;67.50;;;;;;5031611;28;20029;-82
2022/01/30 06:15:27;;;;;;;6.63;4.20;;;6.40;67.50;;;;;;5031334;28;21291;-82
2022/01/30 06:17:53;;;;;;;7.60;5.23;;;6.80;68.00;;;;;;5030783;28;20041;-82
2022/01/30 06:20:19;;;;;;;6.23;4.10;;;6.80;67.00;;;;;;5032212;28;20033;-82
2022/01/30 06:22:44;;;;;;;6.63;3.87;;;6.80;67.50;;;;;;5032456;28;20057;-82
2022/01/30 06:25:10;;;;;;;7.70;4.77;;;6.80;67.30;;;;;;5033569;28;20100;-82
2022/01/30 06:27:37;;;;;;;5.50;3.80;;;6.90;67.40;;;;;;5032425;28;20117;-82
2022/01/30 06:30:05;;;;;;;7.00;4.00;;;6.90;67.20;;;;;;5019674;28;20072;-82
2022/01/30 06:32:31;;;;;;;6.93;4.77;;;6.90;67.20;;;;;;5020719;28;20125;-82
2022/01/30 06:34:56;;;;;;;4.97;2.90;;;6.80;66.80;;;;;;5021045;28;20137;-83
2022/01/30 06:37:22;;;;;;;7.97;4.03;;;7.10;67.90;;;;;;5022997;28;20441;-82
2022/01/30 06:39:48;;;;;;;6.80;4.50;;;7.30;66.60;;;;;;5020924;28;20257;-82
2022/01/30 06:42:14;;;;;;;7.37;3.40;;;7.40;66.50;;;;;;5019247;28;20465;-82
2022/01/30 06:44:42;;;;;;;11.00;5.40;;;7.40;66.70;;;;;;5023072;28;20091;-82
2022/01/30 06:47:08;;;;;;;8.63;5.23;;;7.40;65.80;;;;;;5017207;28;20042;-82
2022/01/30 06:49:34;;;;;;;7.10;4.33;;;7.20;65.80;;;;;;5028176;28;20369;-82
2022/01/30 06:52:00;;;;;;;4.43;2.50;;;7.00;66.50;;;;;;5019426;28;20025;-82
2022/01/30 06:54:25;;;;;;;6.10;2.73;;;7.00;66.80;;;;;;5018592;28;20037;-82
2022/01/30 06:56:51;;;;;;;4.40;3.23;;;7.40;66.50;;;;;;5021172;28;20404;-82
2022/01/30 06:59:17;;;;;;;6.77;4.13;;;7.80;65.50;;;;;;5021052;28;20033;-80
2022/01/30 07:01:42;;;;;;;8.83;4.07;;;7.90;65.10;;;;;;5023393;28;20129;-80
2022/01/30 07:04:08;;;;;;;7.20;4.00;;;8.00;64.40;;;;;;5028648;28;20551;-80
2022/01/30 07:06:34;;;;;;;7.53;3.10;;;7.60;64.40;;;;;;5028984;28;20516;-81
2022/01/30 07:09:00;;;;;;;6.43;3.80;;;7.80;65.30;;;;;;5021292;28;20483;-81
2022/01/30 07:11:25;;;;;;;4.40;2.93;;;8.30;64.30;;;;;;5029404;28;20464;-81
2022/01/30 07:13:51;;;;;;;8.47;4.33;;;8.40;63.20;;;;;;5017754;28;20033;-81
2022/01/30 07:16:17;;;;;;;5.47;3.23;;;8.30;63.00;;;;;;5028617;28;20025;-81
2022/01/30 07:18:43;;;;;;;4.43;2.40;;;8.10;63.20;;;;;;5027120;28;20117;-81
2022/01/30 07:21:09;;;;;;;18.87;10.67;;;8.00;63.50;;;;;;5037808;28;20128;-81
2022/01/30 07:23:37;;;;;;;6.10;3.57;;;7.90;63.70;;;;;;5022393;28;21557;-81
2022/01/30 07:26:03;;;;;;;24.33;13.43;;;7.80;63.70;;;;;;5027623;28;20064;-81
2022/01/30 07:28:30;;;;;;;10.37;5.83;;;7.90;64.00;;;;;;5030579;28;20021;-81
2022/01/30 07:30:56;;;;;;;8.67;4.63;;;8.00;63.50;;;;;;5025965;28;20033;-81
2022/01/30 07:33:22;;;;;;;9.00;5.07;;;8.10;63.90;;;;;;5031601;28;20029;-81
2022/01/30 07:35:50;;;;;;;8.47;5.77;;;8.10;62.90;;;;;;5031424;28;20037;-81
2022/01/30 07:38:17;;;;;;;7.43;4.20;;;8.00;63.00;;;;;;5029045;28;20045;-81
2022/01/30 07:40:43;;;;;;;6.57;4.40;;;7.90;63.10;;;;;;5022028;28;20036;-80
2022/01/30 07:43:10;;;;;;;6.53;3.80;;;7.80;63.70;;;;;;5030469;28;20344;-81
2022/01/30 07:45:36;;;;;;;4.57;3.20;;;7.90;63.20;;;;;;5022577;28;20041;-81
2022/01/30 07:48:02;;;;;;;8.17;4.90;;;7.90;63.20;;;;;;5022199;28;20049;-80
2022/01/30 07:50:29;;;;;;;7.50;4.43;;;7.90;63.20;;;;;;5020191;28;20664;-81
2022/01/30 07:52:54;;;;;;;5.87;3.77;;;8.00;63.00;;;;;;5025679;28;20405;-81
2022/01/30 07:55:20;;;;;;;7.40;4.00;;;8.00;62.70;;;;;;5021549;28;20029;-81
2022/01/30 07:57:46;;;;;;;8.70;5.17;;;7.90;62.80;;;;;;5020071;28;20124;-81
2022/01/30 08:00:13;;;;;;;4.83;3.40;;;7.90;62.80;;;;;;5029431;28;20026;-81
2022/01/30 08:02:39;;;;;;;7.53;3.97;;;7.90;62.70;;;;;;5019933;28;20030;-82
2022/01/30 08:05:05;;;;;;;10.20;6.00;;;7.90;62.70;;;;;;5027128;28;20033;-81
2022/01/30 08:07:31;;;;;;;9.70;5.73;;;8.00;62.70;;;;;;5026981;28;20436;-81
2022/01/30 08:09:57;;;;;;;14.17;8.30;;;8.00;62.70;;;;;;5024790;28;20120;-81
2022/01/30 08:12:23;;;;;;;7.97;4.50;;;7.90;62.60;;;;;;5024111;28;20112;-81
2022/01/30 08:14:49;;;;;;;8.73;3.87;;;7.90;62.70;;;;;;5027346;28;20030;-82
2022/01/30 08:17:21;;;;;;;8.33;4.80;;;8.00;62.60;;;;;;5024214;28;20032;-81
2022/01/30 08:19:47;;;;;;;6.37;3.60;;;8.00;62.30;;;;;;5027734;28;20424;-81
2022/01/30 08:22:13;;;;;;;57.50;30.43;;;8.10;62.60;;;;;;5024451;28;20419;-81
2022/01/30 08:24:39;;;;;;;10.23;6.33;;;8.30;62.00;;;;;;5020799;28;20037;-81
2022/01/30 08:27:06;;;;;;;12.93;6.20;;;8.20;61.80;;;;;;5026718;28;20080;-80
2022/01/30 08:29:32;;;;;;;10.70;5.90;;;8.20;61.70;;;;;;5019128;28;20443;-81
2022/01/30 08:31:58;;;;;;;12.23;6.43;;;8.10;61.80;;;;;;5020052;28;20021;-81
2022/01/30 08:34:25;;;;;;;12.17;6.13;;;8.20;61.80;;;;;;5020681;28;20030;-81
2022/01/30 08:36:51;;;;;;;9.47;5.57;;;8.20;61.80;;;;;;5018057;28;20044;-81
2022/01/30 08:39:16;;;;;;;10.27;6.53;;;8.20;61.80;;;;;;5024478;28;20598;-81
2022/01/30 08:41:42;;;;;;;14.17;7.53;;;8.20;61.90;;;;;;5022607;28;20056;-81
2022/01/30 08:44:08;;;;;;;11.50;6.90;;;8.20;62.10;;;;;;5026277;28;20030;-81
2022/01/30 08:46:34;;;;;;;12.37;7.07;;;8.20;62.10;;;;;;5020984;28;20033;-81
2022/01/30 08:49:00;;;;;;;8.97;5.70;;;8.20;62.20;;;;;;5022397;28;20662;-81
2022/01/30 08:51:25;;;;;;;12.13;8.13;;;8.30;62.30;;;;;;5020743;28;20060;-81
2022/01/30 08:53:51;;;;;;;11.40;7.17;;;8.30;62.60;;;;;;5031213;28;20033;-81
2022/01/30 08:56:18;;;;;;;12.30;7.17;;;8.40;61.90;;;;;;5029961;28;20029;-81
2022/01/30 08:58:44;;;;;;;15.03;8.93;;;8.40;61.90;;;;;;5025927;28;20018;-82
2022/01/30 09:01:12;;;;;;;11.70;7.70;;;8.40;61.80;;;;;;5020504;28;20588;-82
2022/01/30 09:03:38;;;;;;;12.20;7.30;;;8.50;61.80;;;;;;5022531;28;20038;-81
2022/01/30 09:06:04;;;;;;;13.50;7.70;;;8.60;61.70;;;;;;5022525;28;20026;-81
2022/01/30 09:08:30;;;;;;;9.80;6.20;;;8.60;61.50;;;;;;5018181;28;20769;-81
2022/01/30 09:10:57;;;;;;;7.43;4.33;;;8.70;61.80;;;;;;5034009;28;20422;-82
2022/01/30 09:13:23;;;;;;;8.63;4.90;;;8.80;61.30;;;;;;5019102;28;20108;-81
2022/01/30 09:15:56;;;;;;;9.03;6.07;;;8.90;61.00;;;;;;5020239;28;20017;-81
2022/01/30 09:18:22;;;;;;;12.32;7.93;;;9.00;61.00;;;;;;5020091;28;20021;-81
2022/01/30 09:20:48;;;;;;;9.97;6.60;;;9.10;60.30;;;;;;5023960;28;20029;-81
2022/01/30 09:23:14;;;;;;;8.90;5.70;;;9.00;59.90;;;;;;5024012;28;20056;-81
2022/01/30 09:25:40;;;;;;;9.40;4.90;;;9.10;60.00;;;;;;5018692;28;20116;-81
2022/01/30 09:28:05;;;;;;;7.00;3.97;;;9.10;59.60;;;;;;5018397;28;20160;-82
2022/01/30 09:30:32;;;;;;;6.80;4.30;;;9.10;59.40;;;;;;5016114;28;20037;-82
2022/01/30 09:32:58;;;;;;;8.83;5.53;;;9.20;59.50;;;;;;5017768;28;20532;-82
2022/01/30 09:35:24;;;;;;;7.50;4.70;;;9.20;59.20;;;;;;5022409;28;20468;-82
2022/01/30 09:37:50;;;;;;;7.07;4.47;;;9.30;59.10;;;;;;5016322;28;20048;-82
2022/01/30 09:40:17;;;;;;;6.60;4.40;;;9.50;59.20;;;;;;5025019;28;20589;-81
2022/01/30 09:42:45;;;;;;;6.13;3.87;;;9.60;58.90;;;;;;5018680;28;20518;-82
2022/01/30 09:45:15;;;;;;;6.53;3.57;;;9.70;58.50;;;;;;5023067;28;20499;-82
2022/01/30 09:47:41;;;;;;;7.43;3.30;;;9.80;58.50;;;;;;5018067;28;20041;-82
2022/01/30 09:50:09;;;;;;;2.93;1.63;;;9.90;58.00;;;;;;5018764;28;20028;-81
2022/01/30 09:52:36;;;;;;;2.73;1.60;;;9.90;57.20;;;;;;5022096;28;20021;-82
2022/01/30 09:55:03;;;;;;;2.83;1.53;;;10.10;56.90;;;;;;5014685;28;20041;-82
2022/01/30 09:57:28;;;;;;;3.33;1.80;;;10.20;56.30;;;;;;5022530;28;20488;-82
2022/01/30 09:59:56;;;;;;;5.33;2.23;;;10.20;55.90;;;;;;5016226;28;20112;-80
2022/01/30 10:02:25;;;;;;;2.43;1.53;;;10.20;55.60;;;;;;5024579;28;20029;-82
2022/01/30 10:04:52;;;;;;;2.30;0.80;;;10.30;55.30;;;;;;5037098;28;20025;-82
2022/01/30 10:07:21;;;;;;;4.77;0.97;;;10.50;54.60;;;;;;5027449;28;20530;-82
2022/01/30 10:09:49;;;;;;;2.83;0.90;;;10.70;54.00;;;;;;5028091;28;20057;-82
2022/01/30 10:12:19;;;;;;;2.63;1.03;;;11.00;53.20;;;;;;5025264;28;20105;-82
2022/01/30 10:15:06;;;;;;;2.83;1.10;;;11.00;52.60;;;;;;5022980;28;20029;-82
2022/01/30 10:17:40;;;;;;;1.83;0.70;;;11.10;52.30;;;;;;5025658;28;20104;-82
2022/01/30 10:20:20;;;;;;;0.80;0.40;;;11.20;51.80;;;;;;5020892;28;20590;-82
2022/01/30 10:22:49;;;;;;;1.53;0.60;;;11.20;50.30;;;;;;5030587;28;20048;-84
2022/01/30 10:25:27;;;;;;;1.07;0.50;;;11.50;50.40;;;;;;5031089;28;20580;-82
2022/01/30 10:28:14;;;;;;;0.87;0.40;;;11.80;50.00;;;;;;5023284;28;20075;-82
2022/01/30 10:30:43;;;;;;;0.93;0.63;;;12.00;49.20;;;;;;5018668;28;20068;-82
2022/01/30 10:33:09;;;;;;;1.60;0.60;;;12.20;49.30;;;;;;5023067;28;20492;-82
2022/01/30 10:35:55;;;;;;;1.40;0.73;;;12.30;49.00;;;;;;5020433;28;20396;-82
2022/01/30 10:38:23;;;;;;;6.97;3.13;;;12.60;49.10;;;;;;5031756;28;20041;-83
2022/01/30 10:41:14;;;;;;;8.30;3.60;;;12.70;49.10;;;;;;5022540;28;20030;-82
2022/01/30 10:43:55;;;;;;;6.63;3.37;;;12.70;49.00;;;;;;5017855;28;20030;-82
2022/01/30 10:46:30;;;;;;;3.60;0.90;;;12.90;49.60;;;;;;5025770;28;20042;-82
2022/01/30 10:48:58;;;;;;;9.83;4.27;;;13.00;48.70;;;;;;5023552;28;20484;-82
2022/01/30 10:51:26;;;;;;;2.07;1.20;;;13.00;48.40;;;;;;5027209;28;20025;-82
2022/01/30 10:53:52;;;;;;;1.27;0.50;;;13.00;48.00;;;;;;5022139;28;20037;-82
2022/01/30 10:56:25;;;;;;;3.90;1.23;;;13.20;45.70;;;;;;5025033;28;20030;-82
2022/01/30 10:59:16;;;;;;;1.10;0.60;;;13.10;45.50;;;;;;5027529;28;20526;-82
2022/01/30 11:01:41;;;;;;;17.60;6.83;;;13.30;45.70;;;;;;5018762;28;20473;-82
2022/01/30 11:04:19;;;;;;;5.30;1.60;;;13.30;46.10;;;;;;5022939;28;20080;-82
2022/01/30 11:06:47;;;;;;;2.10;0.63;;;13.60;46.20;;;;;;5020456;28;20125;-82
2022/01/30 11:09:17;;;;;;;1.03;0.40;;;13.90;45.80;;;;;;5024367;28;20021;-83
2022/01/30 11:11:48;;;;;;;5.07;2.50;;;14.10;44.80;;;;;;5023246;28;20017;-82
2022/01/30 11:14:17;;;;;;;5.20;2.70;;;14.40;44.70;;;;;;5024837;28;20034;-83
2022/01/30 11:17:02;;;;;;;6.80;3.20;;;14.50;44.70;;;;;;5021462;28;20033;-83
2022/01/30 11:19:32;;;;;;;0.77;0.40;;;14.60;44.70;;;;;;5026631;28;20045;-84
2022/01/30 11:22:08;;;;;;;15.02;7.60;;;14.50;44.30;;;;;;5030843;28;20402;-83
2022/01/30 11:24:48;;;;;;;6.20;3.15;;;14.60;44.10;;;;;;5027333;28;20420;-83
2022/01/30 11:27:17;;;;;;;4.03;1.10;;;14.70;44.10;;;;;;5028652;28;20503;-83
2022/01/30 11:29:43;;;;;;;8.35;5.03;;;14.50;43.60;;;;;;5023758;28;20387;-83
2022/01/30 11:32:09;;;;;;;5.10;2.17;;;14.60;44.00;;;;;;5024373;28;20018;-83
2022/01/30 11:34:37;;;;;;;7.70;3.47;;;14.60;44.10;;;;;;5029930;28;20266;-83
2022/01/30 11:37:04;;;;;;;2.20;1.40;;;14.80;44.10;;;;;;5029503;28;20032;-84
2022/01/30 11:39:33;;;;;;;2.17;0.90;;;14.90;43.40;;;;;;5022072;28;20037;-84
2022/01/30 11:42:25;;;;;;;2.08;1.10;;;14.80;43.60;;;;;;5023512;28;20057;-83
2022/01/30 11:45:13;;;;;;;1.30;1.00;;;15.00;43.50;;;;;;5017411;28;20424;-82
2022/01/30 11:47:51;;;;;;;3.38;1.77;;;15.20;43.40;;;;;;5025580;28;20049;-82
2022/01/30 11:50:25;;;;;;;1.50;1.02;;;15.30;43.40;;;;;;5017195;28;20134;-82
2022/01/30 11:53:05;;;;;;;1.55;1.15;;;15.50;43.20;;;;;;5027757;28;20100;-82
2022/01/30 11:55:54;;;;;;;2.35;1.35;;;15.30;42.70;;;;;;5029991;28;20033;-82
2022/01/30 11:58:35;;;;;;;2.10;1.73;;;15.20;42.90;;;;;;5021290;28;20032;-82
2022/01/30 12:01:24;;;;;;;1.10;0.80;;;15.30;42.50;;;;;;5027556;28;20040;-83
2022/01/30 12:04:01;;;;;;;3.30;1.27;;;15.30;42.40;;;;;;5009719;28;20104;-82
2022/01/30 12:06:30;;;;;;;3.75;1.00;;;15.40;42.40;;;;;;5011772;28;20065;-82
2022/01/30 12:09:00;;;;;;;1.13;0.40;;;15.40;42.20;;;;;;5032347;28;20017;-82
2022/01/30 12:11:37;;;;;;;0.57;0.40;;;15.60;41.90;;;;;;5031259;28;20087;-82
2022/01/30 12:14:10;;;;;;;0.45;0.30;;;15.60;41.10;;;;;;5031710;28;20028;-82
2022/01/30 12:16:46;;;;;;;0.93;0.40;;;15.50;41.10;;;;;;5031680;28;20459;-82
2022/01/30 12:19:39;;;;;;;2.00;0.73;;;15.60;40.60;;;;;;5031691;28;20036;-82
2022/01/30 12:22:17;;;;;;;2.17;0.57;;;15.60;40.50;;;;;;5025956;28;20037;-82
2022/01/30 12:24:48;;;;;;;1.40;0.60;;;15.60;40.20;;;;;;5023808;28;20029;-82
2022/01/30 12:27:19;;;;;;;1.38;0.52;;;15.50;40.20;;;;;;5032937;28;20076;-83
2022/01/30 12:29:49;;;;;;;0.75;0.40;;;15.40;40.20;;;;;;5031005;28;20048;-83
2022/01/30 12:32:26;;;;;;;0.60;0.30;;;15.20;40.20;;;;;;5031255;28;20045;-83
2022/01/30 12:34:56;;;;;;;0.85;0.55;;;15.10;40.50;;;;;;5026480;28;20033;-83
2022/01/30 12:37:37;;;;;;;1.20;0.70;;;15.30;40.60;;;;;;5032394;28;20025;-82
2022/01/30 12:40:18;;;;;;;1.10;0.50;;;15.30;40.10;;;;;;5031314;28;20018;-83
2022/01/30 12:42:45;;;;;;;0.47;0.30;;;15.30;40.20;;;;;;5030472;28;20041;-83
2022/01/30 12:45:14;;;;;;;0.57;0.40;;;15.30;40.20;;;;;;5031748;28;20021;-83
2022/01/30 12:47:58;;;;;;;0.73;0.52;;;15.30;40.00;;;;;;5027230;28;20405;-82
2022/01/30 12:50:32;;;;;;;1.27;0.50;;;15.30;40.40;;;;;;5028445;28;20049;-82
2022/01/30 12:53:07;;;;;;;1.05;0.40;;;15.30;40.20;;;;;;5019616;28;20504;-83
2022/01/30 12:55:34;;;;;;;1.15;0.60;;;15.30;39.80;;;;;;5027680;28;20064;-83
2022/01/30 12:58:01;;;;;;;1.92;0.77;;;15.10;39.50;;;;;;5030706;28;20106;-83
2022/01/30 13:00:29;;;;;;;2.10;0.85;;;15.10;39.50;;;;;;5030846;28;20033;-83
2022/01/30 13:02:57;;;;;;;1.67;0.60;;;15.00;39.40;;;;;;5019551;28;20117;-82
2022/01/30 13:05:25;;;;;;;1.70;0.70;;;15.00;39.40;;;;;;5018421;28;20603;-83
2022/01/30 13:07:53;;;;;;;2.10;0.63;;;14.90;39.60;;;;;;5031099;28;20022;-83
2022/01/30 13:10:19;;;;;;;1.10;0.30;;;15.00;39.50;;;;;;5030868;28;20025;-83
2022/01/30 13:12:45;;;;;;;0.75;0.60;;;14.80;39.30;;;;;;5032270;28;20131;-83
2022/01/30 13:15:16;;;;;;;1.02;0.70;;;14.80;39.40;;;;;;5030895;28;20056;-83
2022/01/30 13:17:43;;;;;;;1.02;0.60;;;14.80;39.30;;;;;;5032144;28;20384;-83
2022/01/30 13:20:12;;;;;;;3.47;0.53;;;14.80;39.50;;;;;;5032336;28;20071;-82
2022/01/30 13:22:40;;;;;;;1.60;0.75;;;14.80;40.00;;;;;;5026426;28;20408;-82
2022/01/30 13:25:13;;;;;;;1.40;0.87;;;14.80;39.40;;;;;;5012707;28;20026;-82
2022/01/30 13:27:41;;;;;;;3.97;0.50;;;14.80;39.40;;;;;;4995313;28;20033;-82
2022/01/30 13:30:08;;;;;;;0.80;0.50;;;14.80;39.60;;;;;;5020240;28;20014;-82
2022/01/30 13:32:38;;;;;;;2.27;0.40;;;14.80;39.60;;;;;;5027949;28;20025;-82
2022/01/30 13:35:16;;;;;;;1.77;0.50;;;14.70;39.50;;;;;;5025813;28;20416;-82
2022/01/30 13:37:43;;;;;;;0.77;0.50;;;14.60;39.40;;;;;;5030096;28;20044;-83
2022/01/30 13:40:18;;;;;;;2.00;0.80;;;14.60;39.40;;;;;;5030650;28;20500;-82
2022/01/30 13:47:54;;;;;;;0.97;0.53;;;14.40;39.30;;;;;;5032112;28;20128;-83
2022/01/30 13:50:26;;;;;;;1.37;0.40;;;14.40;38.90;;;;;;5031175;28;20120;-84
2022/01/30 13:53:10;;;;;;;1.48;1.17;;;14.30;39.00;;;;;;5032579;28;20022;-83
2022/01/30 13:55:57;;;;;;;3.97;1.30;;;14.30;39.10;;;;;;5027380;28;20033;-83
2022/01/30 13:58:43;;;;;;;0.47;0.30;;;14.30;39.00;;;;;;5014797;28;20091;-82
2022/01/30 14:01:15;;;;;;;2.73;0.57;;;14.20;38.80;;;;;;5031557;28;20080;-83